createdAt,value
2023-03-26T00:00:34.173Z,16.65
2023-03-26T00:01:36.829Z,16.90
2023-03-26T00:02:39.934Z,16.60
2023-03-26T00:03:45.183Z,16.67
2023-03-26T00:04:47.321Z,16.75
2023-03-26T00:05:49.681Z,17.85
2023-03-26T00:06:52.128Z,16.80
2023-03-26T00:07:54.123Z,18.20
2023-03-26T00:08:58.041Z,17.50
2023-03-26T00:10:01.217Z,18.52
2023-03-26T00:11:04.797Z,17.35
2023-03-26T00:12:06.876Z,17.98
2023-03-26T00:13:10.070Z,17.73
2023-03-26T00:14:14.098Z,17.60
2023-03-26T00:15:16.432Z,18.92
2023-03-26T00:16:19.982Z,19.10
2023-03-26T00:17:22.240Z,18.83
2023-03-26T00:18:30.184Z,18.92
2023-03-26T00:19:32.443Z,18.25
2023-03-26T00:20:34.367Z,18.83
2023-03-26T00:21:36.478Z,19.70
2023-03-26T00:22:39.226Z,19.27
2023-03-26T00:23:41.578Z,20.27
2023-03-26T00:24:46.036Z,19.40
2023-03-26T00:25:50.985Z,19.17
2023-03-26T00:26:54.103Z,19.83
2023-03-26T00:27:56.252Z,19.50
2023-03-26T00:29:00.354Z,19.55
2023-03-26T00:30:05.072Z,18.90
2023-03-26T00:31:09.167Z,18.55
2023-03-26T00:32:11.344Z,18.00
2023-03-26T00:33:17.304Z,17.90
2023-03-26T00:34:19.381Z,17.73
2023-03-26T00:35:22.488Z,17.63
2023-03-26T00:36:26.795Z,18.45
2023-03-26T00:37:29.175Z,18.77
2023-03-26T00:38:31.368Z,17.95
2023-03-26T00:39:35.681Z,18.17
2023-03-26T00:40:37.700Z,17.60
2023-03-26T00:41:43.270Z,17.73
2023-03-26T00:42:45.715Z,17.30
2023-03-26T00:43:48.531Z,17.88
2023-03-26T00:44:54.987Z,17.00
2023-03-26T00:45:57.315Z,17.48
2023-03-26T00:46:59.662Z,17.23
2023-03-26T00:48:02.750Z,17.30
2023-03-26T00:49:05.609Z,17.08
2023-03-26T00:50:15.437Z,16.60
2023-03-26T00:51:19.245Z,16.50
2023-03-26T00:52:21.546Z,16.80
2023-03-26T00:53:24.035Z,16.90
2023-03-26T00:54:27.169Z,16.08
2023-03-26T00:55:29.176Z,16.93
2023-03-26T00:56:31.532Z,17.25
2023-03-26T00:57:35.732Z,17.30
2023-03-26T00:58:39.226Z,17.30
2023-03-26T00:59:41.359Z,17.80
2023-03-26T01:00:48.560Z,17.02
2023-03-26T01:01:51.356Z,17.27
2023-03-26T01:02:55.909Z,17.40
2023-03-26T01:04:19.074Z,16.60
2023-03-26T01:05:35.950Z,16.45
2023-03-26T01:06:42.249Z,16.87
2023-03-26T01:07:44.840Z,15.90
2023-03-26T01:08:52.958Z,15.82
2023-03-26T01:10:00.366Z,17.38
2023-03-26T01:11:17.095Z,17.20
2023-03-26T01:12:22.903Z,16.70
2023-03-26T01:13:25.385Z,17.10
2023-03-26T01:14:29.128Z,16.98
2023-03-26T01:15:31.471Z,18.38
2023-03-26T01:16:46.040Z,16.23
2023-03-26T01:17:52.058Z,17.10
2023-03-26T01:18:54.914Z,16.30
2023-03-26T01:20:13.343Z,17.10
2023-03-26T01:21:30.290Z,16.85
2023-03-26T01:22:36.861Z,15.48
2023-03-26T01:23:44.502Z,15.93
2023-03-26T01:24:53.290Z,15.75
2023-03-26T01:26:13.750Z,15.35
2023-03-26T01:27:45.463Z,15.60
2023-03-26T01:28:48.669Z,15.55
2023-03-26T01:30:07.045Z,15.67
2023-03-26T01:31:29.808Z,15.93
2023-03-26T01:33:14.144Z,20.38
2023-03-26T01:34:51.236Z,16.23
2023-03-26T01:36:17.305Z,15.50
2023-03-26T01:37:40.702Z,14.65
2023-03-26T01:38:55.535Z,15.20
2023-03-26T01:40:06.209Z,14.85
2023-03-26T01:41:13.377Z,14.93
2023-03-26T01:42:26.401Z,15.35
2023-03-26T01:43:40.209Z,16.07
2023-03-26T01:44:53.673Z,15.57
2023-03-26T01:45:58.072Z,16.17
2023-03-26T01:47:01.349Z,15.73
2023-03-26T01:48:04.066Z,14.95
2023-03-26T01:49:12.929Z,15.77
2023-03-26T01:50:15.404Z,15.07
2023-03-26T01:51:30.206Z,15.25
2023-03-26T01:52:32.429Z,16.02
2023-03-26T01:53:43.989Z,15.23
2023-03-26T01:54:46.789Z,15.40
2023-03-26T01:56:02.399Z,17.02
2023-03-26T01:57:35.392Z,15.43
2023-03-26T01:58:52.046Z,14.57
2023-03-26T02:00:18.269Z,14.50
2023-03-26T02:01:33.066Z,15.23
2023-03-26T02:02:40.652Z,15.45
2023-03-26T02:03:50.793Z,14.90
2023-03-26T02:05:26.155Z,14.20
2023-03-26T02:06:58.666Z,14.25
2023-03-26T02:08:11.896Z,13.57
2023-03-26T02:09:22.522Z,14.73
2023-03-26T02:10:37.448Z,14.15
2023-03-26T02:11:41.320Z,14.02
2023-03-26T02:12:44.554Z,14.93
2023-03-26T02:13:47.241Z,13.98
2023-03-26T02:14:49.646Z,14.20
2023-03-26T02:15:58.556Z,14.50
2023-03-26T02:17:00.909Z,14.07
2023-03-26T02:18:04.093Z,14.73
2023-03-26T02:19:10.087Z,14.50
2023-03-26T02:20:14.369Z,14.75
2023-03-26T02:21:20.360Z,14.98
2023-03-26T02:22:23.049Z,15.85
2023-03-26T02:23:29.639Z,15.68
2023-03-26T02:24:31.683Z,14.95
2023-03-26T02:25:35.335Z,16.05
2023-03-26T02:26:37.868Z,14.88
2023-03-26T02:27:46.685Z,15.45
2023-03-26T02:28:48.859Z,15.32
2023-03-26T02:29:51.172Z,15.33
2023-03-26T02:30:57.788Z,15.05
2023-03-26T02:32:02.337Z,15.48
2023-03-26T02:33:04.821Z,15.35
2023-03-26T02:34:15.039Z,15.20
2023-03-26T02:35:24.758Z,14.85
2023-03-26T02:36:32.589Z,15.70
2023-03-26T02:37:38.317Z,15.07
2023-03-26T02:41:12.955Z,14.75
2023-03-26T02:42:32.187Z,15.30
2023-03-26T02:43:34.330Z,15.80
2023-03-26T02:44:40.198Z,15.65
2023-03-26T02:45:54.543Z,15.65
2023-03-26T02:47:25.143Z,14.15
2023-03-26T02:48:27.219Z,14.27
2023-03-26T02:49:37.291Z,12.75
2023-03-26T02:50:39.404Z,12.98
2023-03-26T02:51:57.167Z,13.18
2023-03-26T02:53:01.942Z,12.60
2023-03-26T02:54:09.898Z,12.43
2023-03-26T02:55:52.739Z,12.05
2023-03-26T02:56:56.573Z,11.88
2023-03-26T02:58:12.611Z,11.48
2023-03-26T02:59:15.417Z,12.25
2023-03-26T03:00:22.758Z,12.20
2023-03-26T03:01:24.945Z,12.48
2023-03-26T03:02:29.622Z,12.32
2023-03-26T03:03:39.167Z,12.20
2023-03-26T03:04:44.103Z,12.60
2023-03-26T03:05:46.248Z,12.10
2023-03-26T03:06:57.584Z,12.25
2023-03-26T03:08:00.565Z,11.73
2023-03-26T03:09:06.238Z,11.95
2023-03-26T03:10:13.918Z,11.00
2023-03-26T03:11:41.329Z,11.30
2023-03-26T03:12:43.541Z,11.63
2023-03-26T03:13:46.417Z,12.02
2023-03-26T03:14:52.507Z,11.38
2023-03-26T03:15:55.045Z,11.65
2023-03-26T03:16:57.912Z,12.03
2023-03-26T03:18:00.462Z,12.77
2023-03-26T03:19:06.380Z,13.15
2023-03-26T03:20:13.600Z,13.18
2023-03-26T03:21:15.862Z,13.85
2023-03-26T03:22:18.031Z,13.90
2023-03-26T03:23:22.258Z,15.25
2023-03-26T03:24:27.083Z,14.32
2023-03-26T03:25:29.157Z,15.30
2023-03-26T03:26:31.238Z,15.80
2023-03-26T03:27:39.440Z,16.20
2023-03-26T03:28:46.362Z,16.40
2023-03-26T03:29:53.752Z,16.65
2023-03-26T03:31:26.608Z,16.23
2023-03-26T03:32:33.252Z,17.23
2023-03-26T03:33:39.181Z,15.63
2023-03-26T03:34:42.545Z,16.05
2023-03-26T03:35:46.048Z,15.55
2023-03-26T03:36:48.661Z,15.10
2023-03-26T03:38:03.630Z,14.85
2023-03-26T03:39:15.532Z,14.40
2023-03-26T03:40:19.774Z,15.68
2023-03-26T03:41:21.972Z,16.20
2023-03-26T03:42:23.998Z,15.63
2023-03-26T03:43:29.031Z,15.65
2023-03-26T03:44:46.578Z,14.85
2023-03-26T03:46:08.638Z,15.23
2023-03-26T03:47:28.890Z,14.52
2023-03-26T03:48:31.026Z,14.68
2023-03-26T03:49:33.544Z,15.57
2023-03-26T03:50:35.910Z,13.87
2023-03-26T03:51:57.239Z,12.52
2023-03-26T03:53:08.508Z,13.05
2023-03-26T03:54:10.714Z,12.45
2023-03-26T03:55:38.380Z,11.77
2023-03-26T03:56:40.785Z,11.38
2023-03-26T03:57:52.735Z,11.35
2023-03-26T03:58:58.345Z,10.00
2023-03-26T04:00:09.092Z,10.75
2023-03-26T04:01:26.137Z,9.57
2023-03-26T04:02:43.154Z,9.40
2023-03-26T04:03:46.496Z,9.75
2023-03-26T04:04:50.478Z,10.48
2023-03-26T04:05:56.286Z,10.18
2023-03-26T04:07:01.187Z,10.15
2023-03-26T04:08:12.813Z,10.85
2023-03-26T04:09:23.876Z,10.25
2023-03-26T04:10:32.106Z,10.60
2023-03-26T04:11:52.631Z,10.15
2023-03-26T04:13:30.357Z,10.50
2023-03-26T04:15:01.554Z,10.77
2023-03-26T04:16:04.507Z,11.48
2023-03-26T04:17:06.749Z,11.85
2023-03-26T04:18:11.933Z,11.02
2023-03-26T04:19:17.630Z,11.40
2023-03-26T04:20:19.671Z,11.68
2023-03-26T04:21:25.112Z,11.80
2023-03-26T04:22:34.638Z,11.25
2023-03-26T04:23:39.283Z,11.40
2023-03-26T04:24:54.498Z,10.65
2023-03-26T04:26:21.586Z,10.87
2023-03-26T04:27:58.530Z,10.90
2023-03-26T04:29:24.009Z,10.98
2023-03-26T04:30:27.438Z,10.90
2023-03-26T04:31:39.614Z,11.18
2023-03-26T04:32:42.929Z,11.32
2023-03-26T04:33:47.210Z,11.65
2023-03-26T04:34:52.593Z,11.63
2023-03-26T04:36:03.075Z,10.68
2023-03-26T04:37:09.401Z,10.55
2023-03-26T04:38:19.613Z,10.53
2023-03-26T04:39:34.092Z,11.00
2023-03-26T04:40:54.783Z,11.05
2023-03-26T04:42:14.359Z,10.35
2023-03-26T04:43:31.347Z,10.55
2023-03-26T04:44:47.445Z,11.00
2023-03-26T04:45:49.486Z,11.00
2023-03-26T04:46:55.317Z,11.50
2023-03-26T04:48:14.799Z,11.57
2023-03-26T04:49:17.645Z,11.73
2023-03-26T04:50:20.238Z,12.33
2023-03-26T04:51:27.992Z,10.73
2023-03-26T04:52:32.886Z,11.05
2023-03-26T04:53:57.872Z,11.13
2023-03-26T04:55:35.551Z,10.05
2023-03-26T04:56:54.400Z,10.20
2023-03-26T04:58:00.197Z,10.02
2023-03-26T04:59:26.453Z,11.00
2023-03-26T05:00:30.357Z,10.48
2023-03-26T05:01:37.872Z,10.60
2023-03-26T05:02:42.314Z,10.93
2023-03-26T05:03:45.848Z,11.93
2023-03-26T05:04:50.296Z,11.10
2023-03-26T05:05:53.509Z,11.02
2023-03-26T05:06:58.372Z,11.38
2023-03-26T05:08:09.129Z,10.90
2023-03-26T05:09:11.280Z,11.55
2023-03-26T05:10:36.034Z,11.75
2023-03-26T05:11:40.435Z,11.57
2023-03-26T05:12:43.197Z,11.90
2023-03-26T05:13:49.619Z,12.27
2023-03-26T05:14:52.344Z,11.57
2023-03-26T05:16:10.904Z,11.63
2023-03-26T05:17:30.947Z,12.48
2023-03-26T05:18:33.610Z,14.57
2023-03-26T05:19:38.375Z,15.02
2023-03-26T05:20:40.625Z,16.85
2023-03-26T05:21:44.384Z,15.23
2023-03-26T05:22:48.137Z,16.30
2023-03-26T05:23:56.542Z,16.08
2023-03-26T05:24:58.883Z,15.67
2023-03-26T05:26:01.732Z,16.85
2023-03-26T05:27:03.958Z,16.00
2023-03-26T05:28:10.734Z,16.13
2023-03-26T05:29:34.959Z,17.38
2023-03-26T05:30:37.098Z,16.92
2023-03-26T05:31:39.553Z,17.40
2023-03-26T05:32:41.831Z,16.85
2023-03-26T05:33:44.722Z,20.48
2023-03-26T05:34:48.386Z,18.15
2023-03-26T05:36:04.758Z,19.77
2023-03-26T05:37:09.291Z,19.13
2023-03-26T05:38:37.187Z,17.27
2023-03-26T05:39:41.433Z,24.75
2023-03-26T05:41:12.910Z,26.80
2023-03-26T05:42:17.522Z,26.83
2023-03-26T05:43:55.064Z,21.40
2023-03-26T05:45:01.442Z,19.83
2023-03-26T05:46:05.832Z,19.55
2023-03-26T05:47:08.161Z,15.80
2023-03-26T05:48:10.470Z,14.83
2023-03-26T05:49:12.495Z,13.77
2023-03-26T05:50:14.630Z,14.98
2023-03-26T05:51:18.307Z,14.80
2023-03-26T05:52:32.427Z,14.32
2023-03-26T05:53:52.897Z,16.67
2023-03-26T05:55:27.861Z,18.05
2023-03-26T05:56:47.938Z,19.83
2023-03-26T05:58:08.589Z,16.42
2023-03-26T05:59:28.976Z,15.00
2023-03-26T06:01:06.189Z,14.87
2023-03-26T06:02:29.659Z,13.52
2023-03-26T06:03:51.873Z,13.55
2023-03-26T06:04:56.921Z,11.80
2023-03-26T06:06:27.175Z,11.55
2023-03-26T06:07:34.086Z,11.73
2023-03-26T06:09:02.362Z,15.15
2023-03-26T06:10:06.038Z,16.23
2023-03-26T06:11:08.202Z,16.38
2023-03-26T06:12:13.502Z,17.02
2023-03-26T06:13:17.010Z,16.60
2023-03-26T06:14:20.941Z,16.10
2023-03-26T06:15:49.352Z,17.08
2023-03-26T06:16:59.528Z,16.40
2023-03-26T06:18:01.768Z,17.17
2023-03-26T06:19:26.621Z,16.15
2023-03-26T06:20:36.117Z,16.90
2023-03-26T06:21:44.423Z,16.30
2023-03-26T06:22:53.254Z,15.60
2023-03-26T06:23:57.556Z,15.43
2023-03-26T06:25:14.836Z,15.27
2023-03-26T06:26:28.365Z,14.63
2023-03-26T06:27:44.835Z,14.40
2023-03-26T06:30:07.649Z,14.35
2023-03-26T06:31:19.322Z,14.00
2023-03-26T06:32:29.938Z,14.05
2023-03-26T06:33:45.060Z,14.07
2023-03-26T06:34:48.672Z,13.20
2023-03-26T06:35:50.865Z,14.68
2023-03-26T06:36:53.136Z,13.38
2023-03-26T06:37:57.560Z,14.13
2023-03-26T06:39:00.037Z,14.05
2023-03-26T06:40:10.261Z,13.90
2023-03-26T06:41:27.524Z,13.60
2023-03-26T06:43:08.668Z,12.38
2023-03-26T06:44:31.272Z,12.48
2023-03-26T06:45:53.506Z,13.93
2023-03-26T06:47:31.128Z,13.38
2023-03-26T06:48:33.219Z,14.88
2023-03-26T06:49:54.041Z,12.68
2023-03-26T06:51:11.247Z,12.73
2023-03-26T06:52:32.140Z,12.35
2023-03-26T06:54:03.257Z,12.77
2023-03-26T06:55:20.901Z,11.48
2023-03-26T06:56:41.137Z,11.35
2023-03-26T06:58:06.566Z,11.27
2023-03-26T06:59:40.552Z,10.93
2023-03-26T07:01:01.173Z,10.90
2023-03-26T07:02:23.573Z,11.35
2023-03-26T07:03:44.372Z,10.88
2023-03-26T07:05:05.760Z,10.83
2023-03-26T07:06:26.505Z,10.45
2023-03-26T07:07:47.681Z,9.75
2023-03-26T07:09:08.034Z,10.15
2023-03-26T07:10:29.012Z,11.40
2023-03-26T07:11:51.369Z,9.75
2023-03-26T07:13:12.149Z,8.75
2023-03-26T07:14:19.845Z,8.98
2023-03-26T07:15:48.839Z,8.18
2023-03-26T07:17:26.620Z,8.23
2023-03-26T07:18:35.356Z,8.60
2023-03-26T07:19:39.285Z,8.90
2023-03-26T07:20:42.525Z,8.75
2023-03-26T07:21:46.744Z,8.25
2023-03-26T07:23:13.827Z,9.93
2023-03-26T07:24:36.629Z,8.45
2023-03-26T07:25:58.045Z,8.88
2023-03-26T07:27:33.394Z,8.77
2023-03-26T07:29:03.762Z,9.00
2023-03-26T07:30:56.432Z,9.93
2023-03-26T07:32:25.716Z,9.30
2023-03-26T07:34:18.326Z,9.30
2023-03-26T07:36:00.816Z,9.25
2023-03-26T07:37:48.008Z,9.00
2023-03-26T07:39:31.386Z,8.57
2023-03-26T07:41:06.985Z,8.63
2023-03-26T07:43:04.740Z,8.10
2023-03-26T07:44:48.021Z,8.27
2023-03-26T07:45:57.857Z,8.27
2023-03-26T07:47:26.760Z,6.80
2023-03-26T07:48:51.420Z,8.63
2023-03-26T07:50:19.159Z,7.70
2023-03-26T07:51:44.687Z,8.10
2023-03-26T07:53:09.938Z,7.53
2023-03-26T07:54:35.064Z,7.50
2023-03-26T07:56:16.055Z,7.25
2023-03-26T07:58:21.700Z,7.35
2023-03-26T07:59:53.042Z,7.47
2023-03-26T08:01:43.533Z,7.07
2023-03-26T08:03:09.485Z,7.35
2023-03-26T08:05:04.752Z,7.47
2023-03-26T08:06:34.755Z,7.75
2023-03-26T08:07:53.348Z,7.40
2023-03-26T08:09:20.671Z,7.20
2023-03-26T08:11:19.150Z,7.00
2023-03-26T08:12:45.482Z,6.90
2023-03-26T08:13:53.457Z,6.75
2023-03-26T08:15:13.486Z,6.85
2023-03-26T08:16:49.001Z,7.05
2023-03-26T08:18:04.134Z,6.85
2023-03-26T08:19:27.084Z,7.03
2023-03-26T08:20:38.223Z,7.72
2023-03-26T08:22:12.821Z,7.97
2023-03-26T08:23:50.316Z,6.38
2023-03-26T08:25:21.203Z,7.15
2023-03-26T08:26:32.425Z,7.38
2023-03-26T08:28:00.699Z,7.30
2023-03-26T08:29:26.767Z,6.88
2023-03-26T08:30:29.420Z,6.43
2023-03-26T08:31:39.168Z,6.50
2023-03-26T08:32:41.546Z,7.20
2023-03-26T08:33:43.818Z,6.22
2023-03-26T08:34:46.367Z,6.47
2023-03-26T08:35:49.420Z,6.93
2023-03-26T08:36:52.201Z,6.88
2023-03-26T08:37:55.036Z,9.00
2023-03-26T08:38:59.928Z,7.45
2023-03-26T08:40:03.631Z,7.85
2023-03-26T08:41:11.950Z,6.50
2023-03-26T08:42:20.418Z,5.32
2023-03-26T08:43:47.641Z,5.67
2023-03-26T08:45:04.668Z,5.60
2023-03-26T08:46:24.572Z,5.53
2023-03-26T08:48:02.083Z,5.80
2023-03-26T08:49:17.096Z,6.18
2023-03-26T08:50:36.386Z,5.90
2023-03-26T08:51:43.914Z,6.45
2023-03-26T08:53:35.689Z,6.20
2023-03-26T08:54:55.130Z,5.18
2023-03-26T08:56:06.324Z,5.10
2023-03-26T08:57:42.208Z,5.50
2023-03-26T08:59:03.174Z,6.18
2023-03-26T09:00:46.673Z,5.80
2023-03-26T09:01:51.795Z,5.68
2023-03-26T09:02:56.571Z,4.82
2023-03-26T09:04:38.336Z,6.60
2023-03-26T09:06:07.320Z,6.40
2023-03-26T09:07:28.226Z,5.45
2023-03-26T09:08:53.698Z,5.78
2023-03-26T09:10:09.454Z,5.90
2023-03-26T09:11:46.253Z,6.40
2023-03-26T09:12:50.937Z,6.20
2023-03-26T09:14:01.894Z,6.30
2023-03-26T09:15:22.641Z,5.85
2023-03-26T09:16:46.023Z,4.72
2023-03-26T09:18:36.246Z,5.20
2023-03-26T09:20:19.755Z,6.60
2023-03-26T09:21:40.557Z,5.00
2023-03-26T09:23:38.062Z,4.63
2023-03-26T09:24:51.930Z,4.25
2023-03-26T09:26:07.727Z,5.27
2023-03-26T09:27:30.047Z,5.03
2023-03-26T09:29:10.460Z,5.15
2023-03-26T09:30:47.124Z,5.65
2023-03-26T09:32:09.981Z,4.60
2023-03-26T09:33:12.170Z,4.85
2023-03-26T09:34:14.151Z,5.60
2023-03-26T09:35:50.264Z,5.18
2023-03-26T09:36:52.437Z,5.10
2023-03-26T09:38:11.341Z,4.80
2023-03-26T09:39:17.858Z,5.13
2023-03-26T09:40:22.737Z,5.60
2023-03-26T09:41:37.373Z,5.80
2023-03-26T09:42:52.384Z,4.85
2023-03-26T09:44:32.152Z,4.88
2023-03-26T09:46:21.877Z,4.57
2023-03-26T09:47:47.689Z,4.90
2023-03-26T09:49:06.243Z,4.97
2023-03-26T09:50:21.601Z,5.07
2023-03-26T09:51:45.339Z,5.57
2023-03-26T09:52:59.412Z,4.93
2023-03-26T09:54:24.354Z,6.03
2023-03-26T09:55:38.658Z,5.80
2023-03-26T09:56:58.790Z,5.20
2023-03-26T09:58:37.592Z,4.90
2023-03-26T09:59:57.925Z,4.57
2023-03-26T10:01:14.729Z,5.10
2023-03-26T10:02:46.106Z,4.93
2023-03-26T10:04:27.444Z,5.35
2023-03-26T10:05:44.513Z,4.95
2023-03-26T10:06:55.032Z,5.10
2023-03-26T10:08:09.587Z,5.00
2023-03-26T10:09:29.456Z,5.22
2023-03-26T10:10:48.520Z,5.90
2023-03-26T10:12:12.250Z,5.60
2023-03-26T10:13:26.693Z,5.28
2023-03-26T10:15:16.252Z,5.07
2023-03-26T10:16:50.719Z,6.20
2023-03-26T10:18:28.108Z,5.65
2023-03-26T10:19:43.397Z,5.13
2023-03-26T10:21:03.711Z,5.03
2023-03-26T10:22:20.629Z,5.10
2023-03-26T10:23:34.415Z,4.70
2023-03-26T10:24:44.780Z,4.88
2023-03-26T10:26:11.228Z,5.15
2023-03-26T10:27:51.602Z,4.68
2023-03-26T10:29:15.987Z,4.95
2023-03-26T10:30:23.072Z,4.13
2023-03-26T10:31:51.550Z,4.40
2023-03-26T10:33:28.277Z,4.78
2023-03-26T10:34:45.777Z,4.73
2023-03-26T10:36:01.234Z,4.97
2023-03-26T10:37:21.924Z,4.97
2023-03-26T10:38:36.315Z,4.43
2023-03-26T10:40:06.052Z,5.13
2023-03-26T10:41:31.304Z,4.80
2023-03-26T10:43:04.199Z,5.25
2023-03-26T10:44:27.408Z,4.80
2023-03-26T10:45:48.305Z,5.20
2023-03-26T10:47:01.128Z,5.13
2023-03-26T10:48:36.760Z,4.83
2023-03-26T10:49:59.470Z,4.90
2023-03-26T10:51:04.255Z,4.30
2023-03-26T10:52:21.537Z,4.32
2023-03-26T10:53:45.685Z,5.05
2023-03-26T10:54:56.856Z,4.65
2023-03-26T10:56:07.890Z,4.88
2023-03-26T10:57:27.674Z,4.70
2023-03-26T10:58:48.831Z,4.47
2023-03-26T10:59:56.065Z,4.90
2023-03-26T11:01:04.784Z,4.60
2023-03-26T11:02:29.441Z,4.45
2023-03-26T11:03:52.252Z,4.70
2023-03-26T11:05:22.590Z,4.22
2023-03-26T11:06:25.550Z,4.47
2023-03-26T11:07:39.043Z,4.47
2023-03-26T11:08:51.823Z,4.30
2023-03-26T11:10:08.031Z,5.28
2023-03-26T11:11:34.524Z,4.65
2023-03-26T11:13:05.043Z,4.70
2023-03-26T11:14:34.822Z,4.73
2023-03-26T11:16:00.606Z,3.85
2023-03-26T11:17:05.640Z,3.60
2023-03-26T11:18:38.315Z,3.30
2023-03-26T11:19:43.471Z,3.72
2023-03-26T11:20:55.368Z,5.13
2023-03-26T11:22:38.658Z,4.90
2023-03-26T11:24:12.615Z,4.60
2023-03-26T11:25:14.620Z,4.18
2023-03-26T11:26:41.197Z,4.00
2023-03-26T11:28:16.164Z,4.10
2023-03-26T11:29:32.744Z,3.80
2023-03-26T11:30:44.992Z,3.10
2023-03-26T11:31:59.562Z,4.00
2023-03-26T11:33:05.857Z,4.50
2023-03-26T11:34:16.689Z,4.22
2023-03-26T11:35:39.469Z,4.95
2023-03-26T11:36:51.166Z,3.92
2023-03-26T11:37:59.178Z,4.50
2023-03-26T11:39:06.826Z,3.17
2023-03-26T11:40:32.799Z,3.03
2023-03-26T11:41:34.904Z,3.63
2023-03-26T11:42:43.815Z,3.28
2023-03-26T11:43:50.484Z,3.40
2023-03-26T11:45:08.305Z,3.70
2023-03-26T11:46:14.690Z,2.90
2023-03-26T11:47:21.793Z,3.67
2023-03-26T11:48:46.392Z,3.42
2023-03-26T11:49:52.858Z,3.20
2023-03-26T11:51:23.926Z,3.67
2023-03-26T11:52:27.054Z,3.50
2023-03-26T11:53:34.589Z,3.47
2023-03-26T11:54:37.892Z,3.78
2023-03-26T11:55:44.878Z,3.40
2023-03-26T11:57:05.668Z,3.55
2023-03-26T11:58:35.163Z,3.33
2023-03-26T11:59:58.159Z,3.45
2023-03-26T12:01:05.100Z,3.40
2023-03-26T12:02:10.129Z,3.47
2023-03-26T12:03:16.205Z,3.35
2023-03-26T12:04:25.801Z,3.23
2023-03-26T12:05:36.705Z,3.85
2023-03-26T12:06:50.380Z,3.40
2023-03-26T12:07:55.931Z,3.25
2023-03-26T12:08:58.095Z,3.28
2023-03-26T12:10:17.739Z,3.05
2023-03-26T12:11:28.235Z,3.00
2023-03-26T12:12:49.271Z,3.00
2023-03-26T12:13:55.632Z,3.20
2023-03-26T12:14:58.772Z,2.90
2023-03-26T12:16:14.175Z,3.20
2023-03-26T12:17:31.408Z,2.95
2023-03-26T12:18:34.418Z,3.00
2023-03-26T12:19:42.640Z,3.15
2023-03-26T12:20:45.054Z,3.10
2023-03-26T12:21:49.672Z,2.90
2023-03-26T12:23:00.120Z,3.53
2023-03-26T12:24:29.590Z,3.15
2023-03-26T12:25:39.240Z,3.03
2023-03-26T12:26:45.003Z,3.53
2023-03-26T12:27:57.408Z,2.90
2023-03-26T12:29:14.922Z,3.05
2023-03-26T12:30:21.924Z,2.90
2023-03-26T12:31:26.647Z,3.53
2023-03-26T12:32:43.354Z,3.20
2023-03-26T12:34:12.942Z,3.28
2023-03-26T12:35:30.207Z,3.13
2023-03-26T12:36:35.942Z,3.00
2023-03-26T12:37:44.631Z,3.10
2023-03-26T12:39:16.929Z,3.00
2023-03-26T12:40:26.348Z,3.60
2023-03-26T12:44:44.292Z,2.47
2023-03-26T12:44:49.408Z,3.05
2023-03-26T12:44:53.354Z,2.60
2023-03-26T12:47:54.398Z,2.70
2023-03-26T12:48:00.710Z,2.90
2023-03-26T12:48:54.938Z,2.80
2023-03-26T12:49:58.093Z,2.90
2023-03-26T12:51:03.058Z,3.70
2023-03-26T12:52:33.379Z,3.00
2023-03-26T12:53:41.215Z,2.90
2023-03-26T12:55:12.189Z,3.13
2023-03-26T12:56:23.753Z,2.65
2023-03-26T12:57:32.272Z,2.40
2023-03-26T12:58:58.266Z,2.72
2023-03-26T13:00:32.332Z,2.58
2023-03-26T13:01:46.310Z,2.90
2023-03-26T13:03:01.127Z,2.63
2023-03-26T13:04:26.036Z,5.97
2023-03-26T13:05:50.843Z,2.67
2023-03-26T13:07:01.952Z,2.50
2023-03-26T13:08:35.516Z,2.58
2023-03-26T13:09:44.411Z,2.80
2023-03-26T13:10:55.574Z,2.92
2023-03-26T13:12:07.092Z,2.80
2023-03-26T13:13:36.504Z,3.28
2023-03-26T13:14:42.784Z,2.42
2023-03-26T13:16:31.129Z,3.00
2023-03-26T13:18:04.039Z,2.58
2023-03-26T13:19:24.102Z,2.47
2023-03-26T13:20:40.188Z,3.17
2023-03-26T13:21:57.373Z,2.95
2023-03-26T13:23:11.409Z,2.90
2023-03-26T13:24:30.321Z,2.70
2023-03-26T13:25:36.982Z,2.60
2023-03-26T13:26:53.877Z,3.10
2023-03-26T13:28:03.026Z,2.97
2023-03-26T13:29:05.106Z,3.08
2023-03-26T13:30:25.699Z,2.50
2023-03-26T13:32:05.263Z,3.00
2023-03-26T13:33:21.910Z,2.80
2023-03-26T13:34:50.092Z,3.08
2023-03-26T13:36:14.360Z,2.60
2023-03-26T13:37:32.348Z,2.63
2023-03-26T13:38:42.681Z,2.45
2023-03-26T13:40:26.261Z,2.85
2023-03-26T13:41:45.340Z,3.08
2023-03-26T13:43:05.567Z,3.00
2023-03-26T13:44:33.923Z,3.10
2023-03-26T13:45:58.457Z,3.13
2023-03-26T13:47:13.918Z,2.73
2023-03-26T13:48:27.167Z,2.83
2023-03-26T13:49:46.799Z,2.83
2023-03-26T13:51:05.245Z,3.20
2023-03-26T13:52:14.373Z,2.90
2023-03-26T13:53:25.442Z,3.10
2023-03-26T13:54:51.645Z,3.40
2023-03-26T13:55:59.303Z,3.30
2023-03-26T13:57:01.436Z,3.00
2023-03-26T13:58:14.906Z,2.97
2023-03-26T13:59:21.106Z,2.93
2023-03-26T14:00:32.747Z,2.80
2023-03-26T14:01:51.138Z,3.25
2023-03-26T14:03:03.202Z,3.25
2023-03-26T14:04:32.254Z,3.53
2023-03-26T14:05:41.602Z,3.13
2023-03-26T14:06:57.474Z,3.30
2023-03-26T14:08:23.453Z,3.35
2023-03-26T14:09:33.379Z,3.38
2023-03-26T14:10:43.140Z,4.80
2023-03-26T14:12:02.703Z,3.00
2023-03-26T14:13:20.280Z,4.03
2023-03-26T14:14:48.487Z,3.40
2023-03-26T14:15:59.351Z,3.80
2023-03-26T14:17:21.658Z,4.95
2023-03-26T14:18:43.356Z,3.30
2023-03-26T14:20:22.593Z,3.30
2023-03-26T14:21:58.472Z,3.55
2023-03-26T14:23:34.343Z,3.42
2023-03-26T14:25:20.552Z,3.10
2023-03-26T14:26:40.828Z,3.80
2023-03-26T14:27:52.155Z,3.60
2023-03-26T14:29:12.955Z,4.07
2023-03-26T14:30:48.321Z,4.30
2023-03-26T14:32:09.282Z,3.42
2023-03-26T14:33:53.265Z,4.15
2023-03-26T14:35:20.347Z,3.67
2023-03-26T14:36:56.038Z,3.60
2023-03-26T14:38:24.976Z,3.35
2023-03-26T14:40:01.661Z,4.18
2023-03-26T14:41:47.882Z,4.50
2023-03-26T14:43:17.239Z,3.30
2023-03-26T14:44:31.088Z,4.30
2023-03-26T14:46:09.616Z,3.35
2023-03-26T14:47:35.135Z,5.32
2023-03-26T14:48:37.363Z,4.28
2023-03-26T14:50:08.376Z,3.55
2023-03-26T14:51:29.341Z,2.92
2023-03-26T14:52:31.350Z,4.35
2023-03-26T14:53:40.307Z,4.00
2023-03-26T14:54:45.726Z,4.00
2023-03-26T14:55:56.713Z,3.83
2023-03-26T14:57:18.461Z,4.18
2023-03-26T14:58:45.115Z,3.28
2023-03-26T15:00:05.677Z,3.55
2023-03-26T15:01:48.236Z,3.10
2023-03-26T15:03:11.080Z,2.70
2023-03-26T15:04:47.345Z,3.00
2023-03-26T15:06:15.405Z,4.97
2023-03-26T15:07:51.574Z,3.92
2023-03-26T15:09:06.775Z,3.40
2023-03-26T15:10:23.314Z,3.60
2023-03-26T15:11:44.856Z,4.05
2023-03-26T15:12:49.965Z,3.65
2023-03-26T15:14:11.497Z,3.97
2023-03-26T15:15:45.895Z,4.28
2023-03-26T15:17:02.687Z,6.63
2023-03-26T15:18:20.080Z,8.73
2023-03-26T15:20:11.527Z,7.93
2023-03-26T15:21:25.538Z,3.90
2023-03-26T15:22:27.500Z,3.60
2023-03-26T15:24:05.038Z,3.95
2023-03-26T15:25:31.243Z,3.22
2023-03-26T15:26:49.737Z,3.10
2023-03-26T15:28:29.474Z,2.92
2023-03-26T15:30:01.842Z,2.85
2023-03-26T15:31:22.153Z,2.75
2023-03-26T15:32:45.372Z,2.95
2023-03-26T15:33:53.314Z,2.53
2023-03-26T15:35:29.946Z,2.90
2023-03-26T15:36:54.646Z,2.93
2023-03-26T15:38:34.567Z,3.05
2023-03-26T15:40:13.919Z,2.92
2023-03-26T15:41:41.022Z,3.72
2023-03-26T15:42:57.939Z,3.92
2023-03-26T15:45:10.910Z,3.50
2023-03-26T15:46:52.855Z,2.97
2023-03-26T15:48:13.077Z,2.90
2023-03-26T15:49:52.423Z,2.85
2023-03-26T15:51:07.842Z,3.50
2023-03-26T15:52:22.135Z,2.85
2023-03-26T15:53:51.688Z,3.13
2023-03-26T15:55:26.454Z,3.42
2023-03-26T15:56:32.978Z,3.63
2023-03-26T15:57:51.150Z,3.38
2023-03-26T15:59:24.116Z,4.07
2023-03-26T16:00:29.230Z,3.33
2023-03-26T16:01:37.493Z,3.30
2023-03-26T16:02:59.713Z,4.25
2023-03-26T16:04:20.550Z,3.40
2023-03-26T16:06:02.222Z,3.40
2023-03-26T16:07:26.489Z,3.85
2023-03-26T16:08:38.692Z,3.17
2023-03-26T16:10:00.120Z,3.17
2023-03-26T16:11:08.221Z,3.67
2023-03-26T16:12:12.853Z,3.90
2023-03-26T16:13:27.259Z,3.17
2023-03-26T16:14:35.987Z,2.88
2023-03-26T16:15:38.476Z,2.90
2023-03-26T16:17:00.752Z,2.80
2023-03-26T16:18:12.351Z,3.13
2023-03-26T16:19:20.861Z,3.35
2023-03-26T16:20:32.657Z,3.50
2023-03-26T16:21:54.417Z,3.35
2023-03-26T16:23:03.641Z,3.22
2023-03-26T16:24:10.397Z,3.10
2023-03-26T16:25:27.175Z,3.03
2023-03-26T16:26:52.198Z,4.05
2023-03-26T16:28:34.041Z,3.35
2023-03-26T16:30:16.850Z,3.73
2023-03-26T16:31:38.252Z,3.75
2023-03-26T16:32:48.250Z,3.85
2023-03-26T16:34:20.282Z,3.67
2023-03-26T16:35:48.148Z,2.85
2023-03-26T16:36:51.588Z,3.40
2023-03-26T16:38:15.004Z,3.58